sensor_id;sensor_type;location;lat;lon;timestamp;P1;durP1;ratioP1;P2;durP2;ratioP2
49460;SDS011;35355;49.198;-0.368;2024-02-26T00:02:04;1.60;;;0.90;;
49460;SDS011;35355;49.198;-0.368;2024-02-26T00:04:29;2.70;;;1.20;;
49460;SDS011;35355;49.198;-0.368;2024-02-26T00:06:54;4.15;;;1.27;;
49460;SDS011;35355;49.198;-0.368;2024-02-26T00:09:21;2.88;;;1.92;;
49460;SDS011;35355;49.198;-0.368;2024-02-26T00:11:46;2.22;;;1.00;;
49460;SDS011;35355;49.198;-0.368;2024-02-26T00:14:11;2.90;;;0.73;;
49460;SDS011;35355;49.198;-0.368;2024-02-26T00:16:39;2.00;;;1.02;;
49460;SDS011;35355;49.198;-0.368;2024-02-26T00:19:05;2.47;;;1.20;;
49460;SDS011;35355;49.198;-0.368;2024-02-26T00:21:31;1.77;;;1.17;;
49460;SDS011;35355;49.198;-0.368;2024-02-26T00:23:56;1.58;;;0.93;;
49460;SDS011;35355;49.198;-0.368;2024-02-26T00:26:21;1.65;;;0.98;;
49460;SDS011;35355;49.198;-0.368;2024-02-26T00:28:47;2.35;;;1.25;;
49460;SDS011;35355;49.198;-0.368;2024-02-26T00:31:12;1.55;;;0.82;;
49460;SDS011;35355;49.198;-0.368;2024-02-26T00:33:37;1.45;;;0.95;;
49460;SDS011;35355;49.198;-0.368;2024-02-26T00:36:03;1.20;;;0.70;;
49460;SDS011;35355;49.198;-0.368;2024-02-26T00:38:29;0.95;;;0.50;;
49460;SDS011;35355;49.198;-0.368;2024-02-26T00:40:54;3.65;;;1.05;;
49460;SDS011;35355;49.198;-0.368;2024-02-26T00:43:20;0.85;;;0.60;;
49460;SDS011;35355;49.198;-0.368;2024-02-26T00:45:45;2.45;;;0.50;;
49460;SDS011;35355;49.198;-0.368;2024-02-26T00:48:12;1.60;;;0.40;;
49460;SDS011;35355;49.198;-0.368;2024-02-26T00:50:38;1.30;;;0.50;;
49460;SDS011;35355;49.198;-0.368;2024-02-26T00:53:04;1.00;;;0.55;;
49460;SDS011;35355;49.198;-0.368;2024-02-26T00:55:29;0.77;;;0.45;;
49460;SDS011;35355;49.198;-0.368;2024-02-26T00:57:55;0.65;;;0.43;;
49460;SDS011;35355;49.198;-0.368;2024-02-26T01:00:20;1.00;;;0.50;;
49460;SDS011;35355;49.198;-0.368;2024-02-26T01:02:46;1.00;;;0.30;;
49460;SDS011;35355;49.198;-0.368;2024-02-26T01:05:11;1.25;;;0.68;;
49460;SDS011;35355;49.198;-0.368;2024-02-26T01:07:37;1.40;;;0.47;;
49460;SDS011;35355;49.198;-0.368;2024-02-26T01:10:04;2.47;;;0.50;;
49460;SDS011;35355;49.198;-0.368;2024-02-26T01:12:30;1.02;;;0.30;;
49460;SDS011;35355;49.198;-0.368;2024-02-26T01:14:56;1.42;;;0.47;;
49460;SDS011;35355;49.198;-0.368;2024-02-26T01:17:21;0.75;;;0.32;;
49460;SDS011;35355;49.198;-0.368;2024-02-26T01:19:47;1.45;;;0.40;;
49460;SDS011;35355;49.198;-0.368;2024-02-26T01:22:12;0.68;;;0.30;;
49460;SDS011;35355;49.198;-0.368;2024-02-26T01:24:37;2.13;;;1.02;;
49460;SDS011;35355;49.198;-0.368;2024-02-26T01:27:03;1.42;;;0.35;;
49460;SDS011;35355;49.198;-0.368;2024-02-26T01:29:29;0.60;;;0.20;;
49460;SDS011;35355;49.198;-0.368;2024-02-26T01:31:54;2.13;;;0.40;;
49460;SDS011;35355;49.198;-0.368;2024-02-26T01:34:20;1.13;;;0.38;;
49460;SDS011;35355;49.198;-0.368;2024-02-26T01:36:45;1.10;;;0.47;;
49460;SDS011;35355;49.198;-0.368;2024-02-26T01:39:11;1.25;;;0.40;;
49460;SDS011;35355;49.198;-0.368;2024-02-26T01:41:37;1.23;;;0.40;;
49460;SDS011;35355;49.198;-0.368;2024-02-26T01:44:03;1.15;;;0.77;;
49460;SDS011;35355;49.198;-0.368;2024-02-26T01:46:29;3.72;;;0.85;;
49460;SDS011;35355;49.198;-0.368;2024-02-26T01:48:55;2.80;;;1.35;;
49460;SDS011;35355;49.198;-0.368;2024-02-26T01:51:21;1.73;;;1.08;;
49460;SDS011;35355;49.198;-0.368;2024-02-26T01:53:47;2.55;;;1.45;;
49460;SDS011;35355;49.198;-0.368;2024-02-26T01:56:13;1.73;;;1.05;;
49460;SDS011;35355;49.198;-0.368;2024-02-26T01:58:40;2.38;;;1.42;;
49460;SDS011;35355;49.198;-0.368;2024-02-26T02:01:06;3.50;;;1.35;;
49460;SDS011;35355;49.198;-0.368;2024-02-26T02:03:32;2.20;;;1.10;;
49460;SDS011;35355;49.198;-0.368;2024-02-26T02:05:58;5.55;;;0.98;;
49460;SDS011;35355;49.198;-0.368;2024-02-26T02:08:23;3.53;;;1.05;;
49460;SDS011;35355;49.198;-0.368;2024-02-26T02:10:49;3.47;;;0.88;;
49460;SDS011;35355;49.198;-0.368;2024-02-26T02:13:15;2.03;;;0.85;;
49460;SDS011;35355;49.198;-0.368;2024-02-26T02:15:40;1.65;;;0.70;;
49460;SDS011;35355;49.198;-0.368;2024-02-26T02:18:06;2.45;;;0.88;;
49460;SDS011;35355;49.198;-0.368;2024-02-26T02:20:34;1.63;;;0.80;;
49460;SDS011;35355;49.198;-0.368;2024-02-26T02:23:00;0.80;;;0.63;;
49460;SDS011;35355;49.198;-0.368;2024-02-26T02:25:26;3.92;;;0.77;;
49460;SDS011;35355;49.198;-0.368;2024-02-26T02:27:53;2.10;;;0.80;;
49460;SDS011;35355;49.198;-0.368;2024-02-26T02:30:27;2.58;;;0.80;;
49460;SDS011;35355;49.198;-0.368;2024-02-26T02:35:20;4.10;;;1.20;;
49460;SDS011;35355;49.198;-0.368;2024-02-26T02:37:45;5.47;;;1.00;;
49460;SDS011;35355;49.198;-0.368;2024-02-26T02:40:10;4.80;;;1.27;;
49460;SDS011;35355;49.198;-0.368;2024-02-26T02:42:36;11.07;;;1.55;;
49460;SDS011;35355;49.198;-0.368;2024-02-26T02:45:01;3.35;;;0.80;;
49460;SDS011;35355;49.198;-0.368;2024-02-26T02:47:27;1.42;;;0.63;;
49460;SDS011;35355;49.198;-0.368;2024-02-26T02:49:52;7.40;;;1.77;;
49460;SDS011;35355;49.198;-0.368;2024-02-26T02:52:17;5.32;;;1.00;;
49460;SDS011;35355;49.198;-0.368;2024-02-26T02:54:43;1.48;;;0.55;;
49460;SDS011;35355;49.198;-0.368;2024-02-26T02:57:08;0.50;;;0.30;;
49460;SDS011;35355;49.198;-0.368;2024-02-26T02:59:34;2.53;;;0.73;;
49460;SDS011;35355;49.198;-0.368;2024-02-26T03:02:00;1.55;;;0.73;;
49460;SDS011;35355;49.198;-0.368;2024-02-26T03:04:26;4.00;;;0.93;;
49460;SDS011;35355;49.198;-0.368;2024-02-26T03:06:51;2.80;;;0.88;;
49460;SDS011;35355;49.198;-0.368;2024-02-26T03:09:17;1.42;;;0.50;;
49460;SDS011;35355;49.198;-0.368;2024-02-26T03:11:42;1.05;;;0.52;;
49460;SDS011;35355;49.198;-0.368;2024-02-26T03:14:08;5.57;;;0.43;;
49460;SDS011;35355;49.198;-0.368;2024-02-26T03:16:34;1.33;;;0.35;;
49460;SDS011;35355;49.198;-0.368;2024-02-26T03:19:00;1.00;;;0.55;;
49460;SDS011;35355;49.198;-0.368;2024-02-26T03:21:25;1.80;;;1.00;;
49460;SDS011;35355;49.198;-0.368;2024-02-26T03:23:50;2.83;;;1.85;;
49460;SDS011;35355;49.198;-0.368;2024-02-26T03:26:16;3.58;;;2.13;;
49460;SDS011;35355;49.198;-0.368;2024-02-26T03:28:41;4.30;;;2.92;;
49460;SDS011;35355;49.198;-0.368;2024-02-26T03:31:07;5.72;;;3.20;;
49460;SDS011;35355;49.198;-0.368;2024-02-26T03:33:32;3.90;;;2.45;;
49460;SDS011;35355;49.198;-0.368;2024-02-26T03:35:57;3.15;;;1.95;;
49460;SDS011;35355;49.198;-0.368;2024-02-26T03:38:23;3.45;;;1.52;;
49460;SDS011;35355;49.198;-0.368;2024-02-26T03:40:48;2.38;;;1.85;;
49460;SDS011;35355;49.198;-0.368;2024-02-26T03:43:13;3.05;;;1.50;;
49460;SDS011;35355;49.198;-0.368;2024-02-26T03:45:39;2.50;;;1.40;;
49460;SDS011;35355;49.198;-0.368;2024-02-26T03:48:04;1.60;;;0.85;;
49460;SDS011;35355;49.198;-0.368;2024-02-26T03:50:30;1.75;;;0.82;;
49460;SDS011;35355;49.198;-0.368;2024-02-26T03:52:55;6.05;;;0.68;;
49460;SDS011;35355;49.198;-0.368;2024-02-26T03:55:22;1.35;;;0.40;;
49460;SDS011;35355;49.198;-0.368;2024-02-26T03:57:50;1.00;;;0.30;;
49460;SDS011;35355;49.198;-0.368;2024-02-26T04:00:16;0.35;;;0.10;;
49460;SDS011;35355;49.198;-0.368;2024-02-26T04:02:41;1.83;;;0.20;;
49460;SDS011;35355;49.198;-0.368;2024-02-26T04:05:10;1.27;;;0.20;;
49460;SDS011;35355;49.198;-0.368;2024-02-26T04:07:36;1.48;;;0.20;;
49460;SDS011;35355;49.198;-0.368;2024-02-26T04:10:02;0.70;;;0.10;;
49460;SDS011;35355;49.198;-0.368;2024-02-26T04:12:30;0.43;;;0.20;;
49460;SDS011;35355;49.198;-0.368;2024-02-26T04:14:55;2.30;;;0.30;;
49460;SDS011;35355;49.198;-0.368;2024-02-26T04:17:20;0.90;;;0.17;;
49460;SDS011;35355;49.198;-0.368;2024-02-26T04:19:46;1.85;;;1.05;;
49460;SDS011;35355;49.198;-0.368;2024-02-26T04:22:11;3.75;;;0.30;;
49460;SDS011;35355;49.198;-0.368;2024-02-26T04:24:36;1.95;;;0.40;;
49460;SDS011;35355;49.198;-0.368;2024-02-26T04:27:02;4.72;;;0.63;;
49460;SDS011;35355;49.198;-0.368;2024-02-26T04:29:27;4.72;;;0.60;;
49460;SDS011;35355;49.198;-0.368;2024-02-26T04:31:52;2.35;;;0.30;;
49460;SDS011;35355;49.198;-0.368;2024-02-26T04:34:18;9.00;;;0.55;;
49460;SDS011;35355;49.198;-0.368;2024-02-26T04:36:43;2.63;;;0.43;;
49460;SDS011;35355;49.198;-0.368;2024-02-26T04:39:09;1.88;;;0.40;;
49460;SDS011;35355;49.198;-0.368;2024-02-26T04:41:35;6.65;;;0.70;;
49460;SDS011;35355;49.198;-0.368;2024-02-26T04:44:00;3.88;;;0.60;;
49460;SDS011;35355;49.198;-0.368;2024-02-26T04:46:26;6.97;;;0.60;;
49460;SDS011;35355;49.198;-0.368;2024-02-26T04:48:53;6.25;;;0.60;;
49460;SDS011;35355;49.198;-0.368;2024-02-26T04:51:18;4.45;;;1.02;;
49460;SDS011;35355;49.198;-0.368;2024-02-26T04:53:44;9.18;;;1.00;;
49460;SDS011;35355;49.198;-0.368;2024-02-26T04:56:09;5.53;;;0.70;;
49460;SDS011;35355;49.198;-0.368;2024-02-26T04:58:34;6.25;;;0.95;;
49460;SDS011;35355;49.198;-0.368;2024-02-26T05:01:00;4.72;;;0.60;;
49460;SDS011;35355;49.198;-0.368;2024-02-26T05:03:25;8.50;;;0.70;;
49460;SDS011;35355;49.198;-0.368;2024-02-26T05:05:50;3.10;;;0.57;;
49460;SDS011;35355;49.198;-0.368;2024-02-26T05:08:16;5.43;;;0.80;;
49460;SDS011;35355;49.198;-0.368;2024-02-26T05:10:41;3.53;;;0.43;;
49460;SDS011;35355;49.198;-0.368;2024-02-26T05:13:08;2.78;;;0.50;;
49460;SDS011;35355;49.198;-0.368;2024-02-26T05:15:34;7.15;;;0.43;;
49460;SDS011;35355;49.198;-0.368;2024-02-26T05:17:59;1.50;;;0.20;;
49460;SDS011;35355;49.198;-0.368;2024-02-26T05:20:25;5.00;;;0.40;;
49460;SDS011;35355;49.198;-0.368;2024-02-26T05:22:50;3.63;;;0.65;;
49460;SDS011;35355;49.198;-0.368;2024-02-26T05:25:16;1.45;;;0.50;;
49460;SDS011;35355;49.198;-0.368;2024-02-26T05:27:43;6.55;;;0.70;;
49460;SDS011;35355;49.198;-0.368;2024-02-26T05:30:08;6.05;;;0.60;;
49460;SDS011;35355;49.198;-0.368;2024-02-26T05:32:34;3.85;;;0.40;;
49460;SDS011;35355;49.198;-0.368;2024-02-26T05:35:00;5.32;;;1.35;;
49460;SDS011;35355;49.198;-0.368;2024-02-26T05:37:25;6.43;;;0.70;;
49460;SDS011;35355;49.198;-0.368;2024-02-26T05:39:51;9.55;;;0.80;;
49460;SDS011;35355;49.198;-0.368;2024-02-26T05:42:17;7.75;;;0.93;;
49460;SDS011;35355;49.198;-0.368;2024-02-26T05:44:42;6.95;;;1.00;;
49460;SDS011;35355;49.198;-0.368;2024-02-26T05:47:07;9.23;;;1.08;;
49460;SDS011;35355;49.198;-0.368;2024-02-26T05:49:33;9.00;;;1.73;;
49460;SDS011;35355;49.198;-0.368;2024-02-26T05:51:58;7.72;;;0.88;;
49460;SDS011;35355;49.198;-0.368;2024-02-26T05:54:24;16.42;;;1.50;;
49460;SDS011;35355;49.198;-0.368;2024-02-26T05:56:49;12.63;;;1.25;;
49460;SDS011;35355;49.198;-0.368;2024-02-26T05:59:14;4.97;;;0.85;;
49460;SDS011;35355;49.198;-0.368;2024-02-26T06:01:40;7.68;;;1.00;;
49460;SDS011;35355;49.198;-0.368;2024-02-26T06:04:06;7.60;;;1.52;;
49460;SDS011;35355;49.198;-0.368;2024-02-26T06:06:31;9.85;;;2.03;;
49460;SDS011;35355;49.198;-0.368;2024-02-26T06:08:57;9.77;;;1.73;;
49460;SDS011;35355;49.198;-0.368;2024-02-26T06:11:22;14.70;;;1.27;;
49460;SDS011;35355;49.198;-0.368;2024-02-26T06:13:48;11.50;;;2.38;;
49460;SDS011;35355;49.198;-0.368;2024-02-26T06:16:13;14.75;;;2.45;;
49460;SDS011;35355;49.198;-0.368;2024-02-26T06:18:38;6.90;;;1.02;;
49460;SDS011;35355;49.198;-0.368;2024-02-26T06:21:04;81.65;;;27.80;;
49460;SDS011;35355;49.198;-0.368;2024-02-26T06:23:29;16.17;;;2.90;;
49460;SDS011;35355;49.198;-0.368;2024-02-26T06:25:54;35.55;;;16.13;;
49460;SDS011;35355;49.198;-0.368;2024-02-26T06:28:20;12.18;;;2.95;;
49460;SDS011;35355;49.198;-0.368;2024-02-26T06:30:45;20.15;;;2.97;;
49460;SDS011;35355;49.198;-0.368;2024-02-26T06:33:11;17.63;;;2.45;;
49460;SDS011;35355;49.198;-0.368;2024-02-26T06:35:37;11.65;;;1.80;;
49460;SDS011;35355;49.198;-0.368;2024-02-26T06:38:03;6.30;;;0.90;;
49460;SDS011;35355;49.198;-0.368;2024-02-26T06:40:29;11.75;;;1.50;;
49460;SDS011;35355;49.198;-0.368;2024-02-26T06:42:55;6.90;;;0.90;;
49460;SDS011;35355;49.198;-0.368;2024-02-26T06:45:20;7.78;;;1.10;;
49460;SDS011;35355;49.198;-0.368;2024-02-26T06:47:45;12.10;;;1.73;;
49460;SDS011;35355;49.198;-0.368;2024-02-26T06:50:14;11.00;;;3.33;;
49460;SDS011;35355;49.198;-0.368;2024-02-26T06:52:39;12.52;;;1.50;;
49460;SDS011;35355;49.198;-0.368;2024-02-26T06:55:05;10.82;;;2.03;;
49460;SDS011;35355;49.198;-0.368;2024-02-26T06:57:33;15.15;;;1.50;;
49460;SDS011;35355;49.198;-0.368;2024-02-26T06:59:58;11.00;;;1.13;;
49460;SDS011;35355;49.198;-0.368;2024-02-26T07:02:24;7.60;;;0.93;;
49460;SDS011;35355;49.198;-0.368;2024-02-26T07:04:49;14.70;;;1.83;;
49460;SDS011;35355;49.198;-0.368;2024-02-26T07:07:15;8.00;;;1.10;;
49460;SDS011;35355;49.198;-0.368;2024-02-26T07:09:42;12.93;;;0.93;;
49460;SDS011;35355;49.198;-0.368;2024-02-26T07:12:08;8.90;;;0.75;;
49460;SDS011;35355;49.198;-0.368;2024-02-26T07:14:34;6.55;;;1.45;;
49460;SDS011;35355;49.198;-0.368;2024-02-26T07:16:59;14.13;;;1.10;;
49460;SDS011;35355;49.198;-0.368;2024-02-26T07:19:24;9.80;;;1.33;;
49460;SDS011;35355;49.198;-0.368;2024-02-26T07:21:50;11.80;;;1.88;;
49460;SDS011;35355;49.198;-0.368;2024-02-26T07:24:15;7.38;;;1.88;;
49460;SDS011;35355;49.198;-0.368;2024-02-26T07:26:40;6.15;;;1.55;;
49460;SDS011;35355;49.198;-0.368;2024-02-26T07:29:05;4.35;;;0.80;;
49460;SDS011;35355;49.198;-0.368;2024-02-26T07:31:31;11.05;;;1.38;;
49460;SDS011;35355;49.198;-0.368;2024-02-26T07:33:56;12.07;;;1.13;;
49460;SDS011;35355;49.198;-0.368;2024-02-26T07:36:21;14.15;;;1.83;;
49460;SDS011;35355;49.198;-0.368;2024-02-26T07:38:47;8.70;;;0.65;;
49460;SDS011;35355;49.198;-0.368;2024-02-26T07:41:12;6.60;;;0.93;;
49460;SDS011;35355;49.198;-0.368;2024-02-26T07:43:37;7.03;;;1.42;;
49460;SDS011;35355;49.198;-0.368;2024-02-26T07:46:03;11.05;;;0.93;;
49460;SDS011;35355;49.198;-0.368;2024-02-26T07:48:28;13.20;;;2.08;;
49460;SDS011;35355;49.198;-0.368;2024-02-26T07:50:54;12.43;;;1.40;;
49460;SDS011;35355;49.198;-0.368;2024-02-26T07:53:19;12.02;;;0.88;;
49460;SDS011;35355;49.198;-0.368;2024-02-26T07:55:44;5.85;;;0.60;;
49460;SDS011;35355;49.198;-0.368;2024-02-26T07:58:09;8.68;;;1.13;;
49460;SDS011;35355;49.198;-0.368;2024-02-26T08:00:35;9.23;;;0.95;;
49460;SDS011;35355;49.198;-0.368;2024-02-26T08:03:00;9.05;;;1.73;;
49460;SDS011;35355;49.198;-0.368;2024-02-26T08:05:25;9.13;;;1.85;;
49460;SDS011;35355;49.198;-0.368;2024-02-26T08:07:51;11.93;;;1.00;;
49460;SDS011;35355;49.198;-0.368;2024-02-26T08:10:16;11.43;;;1.17;;
49460;SDS011;35355;49.198;-0.368;2024-02-26T08:12:42;10.40;;;1.10;;
49460;SDS011;35355;49.198;-0.368;2024-02-26T08:15:07;3.05;;;1.23;;
49460;SDS011;35355;49.198;-0.368;2024-02-26T08:17:33;12.95;;;1.33;;
49460;SDS011;35355;49.198;-0.368;2024-02-26T08:19:59;14.25;;;1.75;;
49460;SDS011;35355;49.198;-0.368;2024-02-26T08:22:25;8.95;;;1.13;;
49460;SDS011;35355;49.198;-0.368;2024-02-26T08:24:50;7.72;;;1.40;;
49460;SDS011;35355;49.198;-0.368;2024-02-26T08:27:15;9.15;;;1.45;;
49460;SDS011;35355;49.198;-0.368;2024-02-26T08:29:41;9.10;;;1.10;;
49460;SDS011;35355;49.198;-0.368;2024-02-26T08:32:06;10.43;;;1.05;;
49460;SDS011;35355;49.198;-0.368;2024-02-26T08:34:32;7.40;;;1.20;;
49460;SDS011;35355;49.198;-0.368;2024-02-26T08:36:57;8.15;;;1.10;;
49460;SDS011;35355;49.198;-0.368;2024-02-26T08:39:23;14.63;;;2.65;;
49460;SDS011;35355;49.198;-0.368;2024-02-26T08:41:48;12.07;;;1.85;;
49460;SDS011;35355;49.198;-0.368;2024-02-26T08:44:13;13.63;;;1.42;;
49460;SDS011;35355;49.198;-0.368;2024-02-26T08:46:39;7.93;;;2.40;;
49460;SDS011;35355;49.198;-0.368;2024-02-26T08:49:04;11.55;;;1.85;;
49460;SDS011;35355;49.198;-0.368;2024-02-26T08:51:29;8.15;;;2.08;;
49460;SDS011;35355;49.198;-0.368;2024-02-26T08:53:55;9.07;;;0.85;;
49460;SDS011;35355;49.198;-0.368;2024-02-26T08:56:20;13.13;;;1.63;;
49460;SDS011;35355;49.198;-0.368;2024-02-26T08:58:46;11.20;;;1.10;;
49460;SDS011;35355;49.198;-0.368;2024-02-26T09:01:16;17.80;;;2.80;;
49460;SDS011;35355;49.198;-0.368;2024-02-26T09:03:41;11.63;;;1.75;;
49460;SDS011;35355;49.198;-0.368;2024-02-26T09:06:07;10.02;;;2.28;;
49460;SDS011;35355;49.198;-0.368;2024-02-26T09:08:32;19.67;;;2.63;;
49460;SDS011;35355;49.198;-0.368;2024-02-26T09:10:58;11.80;;;2.03;;
49460;SDS011;35355;49.198;-0.368;2024-02-26T09:13:23;15.48;;;2.20;;
49460;SDS011;35355;49.198;-0.368;2024-02-26T09:15:49;16.58;;;2.90;;
49460;SDS011;35355;49.198;-0.368;2024-02-26T09:18:14;13.55;;;2.38;;
49460;SDS011;35355;49.198;-0.368;2024-02-26T09:20:40;15.23;;;1.75;;
49460;SDS011;35355;49.198;-0.368;2024-02-26T09:23:06;12.07;;;1.55;;
49460;SDS011;35355;49.198;-0.368;2024-02-26T09:25:31;22.23;;;2.55;;
49460;SDS011;35355;49.198;-0.368;2024-02-26T09:27:58;15.38;;;2.05;;
49460;SDS011;35355;49.198;-0.368;2024-02-26T09:30:24;11.55;;;2.05;;
49460;SDS011;35355;49.198;-0.368;2024-02-26T09:32:49;19.27;;;2.38;;
49460;SDS011;35355;49.198;-0.368;2024-02-26T09:35:15;13.38;;;1.52;;
49460;SDS011;35355;49.198;-0.368;2024-02-26T09:37:40;15.32;;;1.52;;
49460;SDS011;35355;49.198;-0.368;2024-02-26T09:40:05;13.90;;;2.53;;
49460;SDS011;35355;49.198;-0.368;2024-02-26T09:42:31;10.13;;;2.08;;
49460;SDS011;35355;49.198;-0.368;2024-02-26T09:45:00;12.95;;;2.97;;
49460;SDS011;35355;49.198;-0.368;2024-02-26T09:47:29;13.10;;;1.80;;
49460;SDS011;35355;49.198;-0.368;2024-02-26T09:49:56;14.30;;;2.30;;
49460;SDS011;35355;49.198;-0.368;2024-02-26T09:52:24;19.63;;;1.73;;
49460;SDS011;35355;49.198;-0.368;2024-02-26T09:54:50;11.82;;;1.73;;
49460;SDS011;35355;49.198;-0.368;2024-02-26T09:57:16;17.63;;;2.78;;
49460;SDS011;35355;49.198;-0.368;2024-02-26T09:59:43;21.80;;;2.00;;
49460;SDS011;35355;49.198;-0.368;2024-02-26T10:02:11;11.88;;;2.25;;
49460;SDS011;35355;49.198;-0.368;2024-02-26T10:04:38;16.05;;;1.50;;
49460;SDS011;35355;49.198;-0.368;2024-02-26T10:07:05;12.63;;;1.45;;
49460;SDS011;35355;49.198;-0.368;2024-02-26T10:09:35;12.88;;;1.63;;
49460;SDS011;35355;49.198;-0.368;2024-02-26T10:12:01;11.55;;;1.40;;
49460;SDS011;35355;49.198;-0.368;2024-02-26T10:14:27;19.55;;;2.05;;
49460;SDS011;35355;49.198;-0.368;2024-02-26T10:16:55;12.35;;;1.58;;
49460;SDS011;35355;49.198;-0.368;2024-02-26T10:19:26;16.95;;;2.25;;
49460;SDS011;35355;49.198;-0.368;2024-02-26T10:21:58;18.08;;;1.90;;
49460;SDS011;35355;49.198;-0.368;2024-02-26T10:24:29;16.45;;;3.05;;
49460;SDS011;35355;49.198;-0.368;2024-02-26T10:26:58;15.80;;;1.80;;
49460;SDS011;35355;49.198;-0.368;2024-02-26T10:29:24;18.98;;;2.05;;
49460;SDS011;35355;49.198;-0.368;2024-02-26T10:31:53;15.18;;;1.35;;
49460;SDS011;35355;49.198;-0.368;2024-02-26T10:34:21;20.17;;;2.35;;
49460;SDS011;35355;49.198;-0.368;2024-02-26T10:36:49;13.40;;;1.85;;
49460;SDS011;35355;49.198;-0.368;2024-02-26T10:39:15;16.70;;;1.55;;
49460;SDS011;35355;49.198;-0.368;2024-02-26T10:41:42;15.70;;;2.17;;
49460;SDS011;35355;49.198;-0.368;2024-02-26T10:44:12;14.10;;;2.65;;
49460;SDS011;35355;49.198;-0.368;2024-02-26T10:46:40;16.90;;;1.75;;
49460;SDS011;35355;49.198;-0.368;2024-02-26T10:49:05;12.82;;;1.92;;
49460;SDS011;35355;49.198;-0.368;2024-02-26T10:51:37;14.15;;;1.60;;
49460;SDS011;35355;49.198;-0.368;2024-02-26T10:54:04;19.67;;;1.52;;
49460;SDS011;35355;49.198;-0.368;2024-02-26T10:56:33;22.50;;;2.03;;
49460;SDS011;35355;49.198;-0.368;2024-02-26T10:58:59;19.83;;;3.42;;
49460;SDS011;35355;49.198;-0.368;2024-02-26T11:01:27;16.10;;;2.10;;
49460;SDS011;35355;49.198;-0.368;2024-02-26T11:03:57;23.83;;;2.92;;
49460;SDS011;35355;49.198;-0.368;2024-02-26T11:06:23;16.27;;;2.75;;
49460;SDS011;35355;49.198;-0.368;2024-02-26T11:08:51;10.15;;;2.00;;
49460;SDS011;35355;49.198;-0.368;2024-02-26T11:11:18;13.98;;;1.92;;
49460;SDS011;35355;49.198;-0.368;2024-02-26T11:13:45;20.98;;;2.33;;
49460;SDS011;35355;49.198;-0.368;2024-02-26T11:16:19;10.93;;;2.05;;
49460;SDS011;35355;49.198;-0.368;2024-02-26T11:18:46;18.27;;;3.08;;
49460;SDS011;35355;49.198;-0.368;2024-02-26T11:21:15;10.73;;;1.90;;
49460;SDS011;35355;49.198;-0.368;2024-02-26T11:23:43;15.70;;;1.85;;
49460;SDS011;35355;49.198;-0.368;2024-02-26T11:26:10;17.88;;;2.53;;
49460;SDS011;35355;49.198;-0.368;2024-02-26T11:28:37;25.52;;;3.55;;
49460;SDS011;35355;49.198;-0.368;2024-02-26T11:31:04;28.65;;;3.05;;
49460;SDS011;35355;49.198;-0.368;2024-02-26T11:33:32;19.75;;;3.08;;
49460;SDS011;35355;49.198;-0.368;2024-02-26T11:36:00;18.63;;;3.72;;
49460;SDS011;35355;49.198;-0.368;2024-02-26T11:38:28;14.18;;;2.90;;
49460;SDS011;35355;49.198;-0.368;2024-02-26T11:40:53;18.35;;;3.92;;
49460;SDS011;35355;49.198;-0.368;2024-02-26T11:43:23;13.65;;;2.22;;
49460;SDS011;35355;49.198;-0.368;2024-02-26T11:46:24;18.48;;;2.70;;
49460;SDS011;35355;49.198;-0.368;2024-02-26T11:48:58;21.13;;;3.17;;
49460;SDS011;35355;49.198;-0.368;2024-02-26T11:51:26;22.25;;;3.08;;
49460;SDS011;35355;49.198;-0.368;2024-02-26T11:53:52;15.48;;;2.25;;
49460;SDS011;35355;49.198;-0.368;2024-02-26T11:58:57;18.67;;;2.67;;
49460;SDS011;35355;49.198;-0.368;2024-02-26T12:01:35;18.73;;;2.83;;
49460;SDS011;35355;49.198;-0.368;2024-02-26T12:04:31;20.17;;;2.85;;
49460;SDS011;35355;49.198;-0.368;2024-02-26T12:06:58;16.63;;;2.45;;
49460;SDS011;35355;49.198;-0.368;2024-02-26T12:09:38;18.80;;;2.50;;
49460;SDS011;35355;49.198;-0.368;2024-02-26T12:12:07;21.15;;;2.30;;
49460;SDS011;35355;49.198;-0.368;2024-02-26T12:14:38;9.07;;;1.50;;
49460;SDS011;35355;49.198;-0.368;2024-02-26T12:17:05;14.70;;;2.97;;
49460;SDS011;35355;49.198;-0.368;2024-02-26T12:19:33;21.48;;;2.70;;
49460;SDS011;35355;49.198;-0.368;2024-02-26T12:22:00;23.35;;;2.60;;
49460;SDS011;35355;49.198;-0.368;2024-02-26T12:24:25;23.25;;;3.13;;
49460;SDS011;35355;49.198;-0.368;2024-02-26T12:26:51;24.73;;;3.97;;
49460;SDS011;35355;49.198;-0.368;2024-02-26T12:29:19;18.00;;;3.67;;
49460;SDS011;35355;49.198;-0.368;2024-02-26T12:31:45;23.75;;;2.33;;
49460;SDS011;35355;49.198;-0.368;2024-02-26T12:34:12;18.13;;;2.45;;
49460;SDS011;35355;49.198;-0.368;2024-02-26T12:36:42;21.10;;;3.10;;
49460;SDS011;35355;49.198;-0.368;2024-02-26T12:39:07;35.05;;;2.45;;
49460;SDS011;35355;49.198;-0.368;2024-02-26T12:41:34;17.20;;;3.00;;
49460;SDS011;35355;49.198;-0.368;2024-02-26T12:44:03;18.65;;;2.42;;
49460;SDS011;35355;49.198;-0.368;2024-02-26T12:46:28;16.08;;;3.25;;
49460;SDS011;35355;49.198;-0.368;2024-02-26T12:48:55;17.10;;;3.28;;
49460;SDS011;35355;49.198;-0.368;2024-02-26T12:51:27;21.88;;;5.10;;
49460;SDS011;35355;49.198;-0.368;2024-02-26T12:53:54;17.17;;;3.03;;
49460;SDS011;35355;49.198;-0.368;2024-02-26T12:56:21;20.75;;;3.50;;
49460;SDS011;35355;49.198;-0.368;2024-02-26T12:58:47;19.88;;;2.78;;
49460;SDS011;35355;49.198;-0.368;2024-02-26T13:01:18;19.23;;;3.40;;
49460;SDS011;35355;49.198;-0.368;2024-02-26T13:03:47;13.65;;;2.70;;
49460;SDS011;35355;49.198;-0.368;2024-02-26T13:06:15;14.35;;;2.58;;
49460;SDS011;35355;49.198;-0.368;2024-02-26T13:08:41;27.92;;;2.70;;
49460;SDS011;35355;49.198;-0.368;2024-02-26T13:11:09;16.10;;;2.72;;
49460;SDS011;35355;49.198;-0.368;2024-02-26T13:13:38;14.10;;;2.35;;
49460;SDS011;35355;49.198;-0.368;2024-02-26T13:18:30;17.17;;;1.95;;
49460;SDS011;35355;49.198;-0.368;2024-02-26T13:21:06;19.23;;;2.13;;
49460;SDS011;35355;49.198;-0.368;2024-02-26T13:23:56;14.07;;;2.35;;
49460;SDS011;35355;49.198;-0.368;2024-02-26T13:26:22;13.10;;;2.85;;
49460;SDS011;35355;49.198;-0.368;2024-02-26T13:28:58;20.63;;;4.40;;
49460;SDS011;35355;49.198;-0.368;2024-02-26T13:31:25;16.15;;;2.83;;
49460;SDS011;35355;49.198;-0.368;2024-02-26T13:33:51;18.65;;;3.85;;
49460;SDS011;35355;49.198;-0.368;2024-02-26T13:36:21;19.13;;;3.13;;
49460;SDS011;35355;49.198;-0.368;2024-02-26T13:38:58;21.75;;;3.70;;
49460;SDS011;35355;49.198;-0.368;2024-02-26T13:41:26;21.58;;;2.95;;
49460;SDS011;35355;49.198;-0.368;2024-02-26T13:43:55;20.70;;;3.22;;
49460;SDS011;35355;49.198;-0.368;2024-02-26T13:46:20;21.65;;;3.03;;
49460;SDS011;35355;49.198;-0.368;2024-02-26T13:48:46;15.93;;;2.00;;
49460;SDS011;35355;49.198;-0.368;2024-02-26T13:51:11;18.15;;;2.20;;
49460;SDS011;35355;49.198;-0.368;2024-02-26T13:53:39;20.80;;;2.75;;
49460;SDS011;35355;49.198;-0.368;2024-02-26T13:56:05;25.42;;;2.75;;
49460;SDS011;35355;49.198;-0.368;2024-02-26T13:58:33;13.65;;;2.78;;
49460;SDS011;35355;49.198;-0.368;2024-02-26T14:01:02;13.23;;;3.70;;
49460;SDS011;35355;49.198;-0.368;2024-02-26T14:03:28;21.42;;;3.20;;
49460;SDS011;35355;49.198;-0.368;2024-02-26T14:05:54;27.75;;;3.38;;
49460;SDS011;35355;49.198;-0.368;2024-02-26T14:08:19;23.17;;;4.03;;
49460;SDS011;35355;49.198;-0.368;2024-02-26T14:10:45;21.88;;;3.58;;
49460;SDS011;35355;49.198;-0.368;2024-02-26T14:13:11;16.08;;;3.05;;
49460;SDS011;35355;49.198;-0.368;2024-02-26T14:15:38;21.02;;;3.10;;
49460;SDS011;35355;49.198;-0.368;2024-02-26T14:18:04;24.63;;;3.80;;
49460;SDS011;35355;49.198;-0.368;2024-02-26T14:20:30;16.90;;;2.60;;
49460;SDS011;35355;49.198;-0.368;2024-02-26T14:22:55;12.73;;;2.30;;
49460;SDS011;35355;49.198;-0.368;2024-02-26T14:25:21;15.07;;;3.25;;
49460;SDS011;35355;49.198;-0.368;2024-02-26T14:27:47;25.38;;;3.92;;
49460;SDS011;35355;49.198;-0.368;2024-02-26T14:30:12;22.58;;;2.75;;
49460;SDS011;35355;49.198;-0.368;2024-02-26T14:32:38;22.05;;;2.25;;